createdAt,value
2017-11-29T00:01:27.108Z,41.58
2017-11-29T00:03:54.503Z,40.50
2017-11-29T00:06:21.896Z,38.97
2017-11-29T00:08:49.292Z,46.30
2017-11-29T00:11:16.680Z,34.03
2017-11-29T00:13:44.080Z,39.27
2017-11-29T00:16:11.476Z,43.40
2017-11-29T00:18:38.871Z,38.40
2017-11-29T00:21:06.265Z,46.73
2017-11-29T00:23:33.647Z,44.80
2017-11-29T00:26:01.048Z,41.00
2017-11-29T00:28:28.440Z,42.40
2017-11-29T00:30:55.931Z,45.17
2017-11-29T00:33:23.318Z,37.03
2017-11-29T00:35:50.705Z,43.20
2017-11-29T00:38:18.086Z,43.17
2017-11-29T00:40:45.552Z,36.13
2017-11-29T00:43:13.008Z,43.53
2017-11-29T00:45:40.424Z,40.87
2017-11-29T00:48:07.800Z,44.97
2017-11-29T00:50:35.286Z,40.73
2017-11-29T00:53:02.660Z,48.73
2017-11-29T00:55:30.053Z,40.73
2017-11-29T00:57:57.440Z,38.43
2017-11-29T01:00:24.832Z,40.23
2017-11-29T01:02:52.224Z,51.47
2017-11-29T01:05:19.627Z,51.13
2017-11-29T01:07:47.039Z,39.33
2017-11-29T01:10:14.519Z,43.00
2017-11-29T01:12:41.988Z,51.67
2017-11-29T01:15:09.400Z,44.40
2017-11-29T01:17:36.784Z,53.40
2017-11-29T01:20:04.172Z,47.43
2017-11-29T01:22:31.592Z,46.87
2017-11-29T01:24:58.971Z,45.70
2017-11-29T01:27:26.373Z,48.20
2017-11-29T01:29:53.761Z,44.93
2017-11-29T01:32:21.155Z,46.00
2017-11-29T01:34:48.539Z,56.20
2017-11-29T01:37:15.937Z,45.13
2017-11-29T01:39:43.330Z,50.03
2017-11-29T01:42:10.728Z,51.03
2017-11-29T01:44:38.124Z,47.60
2017-11-29T01:47:05.513Z,44.57
2017-11-29T01:49:32.899Z,45.37
2017-11-29T01:52:00.352Z,51.77
2017-11-29T01:54:27.748Z,48.33
2017-11-29T01:56:55.170Z,45.40
2017-11-29T01:59:22.560Z,42.83
2017-11-29T02:10:22.888Z,54.13
2017-11-29T02:12:50.346Z,46.10
2017-11-29T02:15:17.731Z,49.13
2017-11-29T02:17:45.115Z,48.40
2017-11-29T02:20:12.516Z,41.57
2017-11-29T02:22:39.977Z,46.10
2017-11-29T02:25:07.468Z,50.83
2017-11-29T02:27:34.849Z,46.67
2017-11-29T02:30:02.232Z,44.83
2017-11-29T02:32:29.730Z,47.80
2017-11-29T02:34:57.163Z,51.43
2017-11-29T02:37:24.604Z,48.90
2017-11-29T02:40:03.840Z,51.23
2017-11-29T02:42:37.811Z,46.57
2017-11-29T02:45:05.201Z,58.17
2017-11-29T02:47:32.656Z,48.27
2017-11-29T02:50:00.125Z,41.77
2017-11-29T02:52:27.508Z,52.13
2017-11-29T02:54:54.922Z,50.67
2017-11-29T02:57:22.298Z,46.73
2017-11-29T02:59:49.709Z,46.50
2017-11-29T03:02:17.119Z,43.80
2017-11-29T03:04:44.519Z,47.63
2017-11-29T03:07:11.908Z,44.83
2017-11-29T03:09:39.313Z,48.80
2017-11-29T03:12:06.697Z,45.97
2017-11-29T03:14:34.194Z,50.30
2017-11-29T03:17:01.597Z,50.20
2017-11-29T03:19:28.980Z,53.10
2017-11-29T03:21:56.372Z,45.73
2017-11-29T03:24:23.768Z,44.73
2017-11-29T03:26:51.156Z,46.60
2017-11-29T03:29:18.597Z,42.50
2017-11-29T03:31:45.977Z,44.03
2017-11-29T03:34:13.367Z,51.03
2017-11-29T03:36:40.756Z,55.53
2017-11-29T03:39:08.237Z,45.43
2017-11-29T03:41:35.619Z,46.30
2017-11-29T03:44:03.017Z,46.77
2017-11-29T03:46:30.405Z,45.93
2017-11-29T03:48:57.806Z,52.20
2017-11-29T03:51:25.188Z,46.50
2017-11-29T03:53:52.571Z,47.17
2017-11-29T03:56:19.963Z,45.17
2017-11-29T03:58:47.347Z,47.67
2017-11-29T04:01:14.749Z,53.73
2017-11-29T04:03:42.193Z,45.33
2017-11-29T04:06:09.583Z,42.13
2017-11-29T04:08:36.995Z,48.07
2017-11-29T04:11:04.391Z,46.53
2017-11-29T04:13:31.772Z,54.53
2017-11-29T04:15:59.170Z,49.00
2017-11-29T04:18:26.554Z,44.73
2017-11-29T04:20:53.950Z,47.83
2017-11-29T04:23:21.345Z,54.93
2017-11-29T04:25:48.715Z,49.17
2017-11-29T04:28:16.103Z,47.60
2017-11-29T04:30:43.606Z,41.10
2017-11-29T04:33:10.991Z,44.80
2017-11-29T04:35:38.389Z,40.60
2017-11-29T04:38:05.855Z,42.27
2017-11-29T04:40:33.250Z,52.60
2017-11-29T04:43:00.637Z,43.33
2017-11-29T04:45:28.132Z,39.60
2017-11-29T04:47:55.591Z,39.67
2017-11-29T04:50:23.001Z,44.83
2017-11-29T04:52:50.373Z,43.47
2017-11-29T04:55:17.780Z,41.13
2017-11-29T04:57:45.202Z,40.93
2017-11-29T05:00:12.583Z,50.33
2017-11-29T05:02:39.982Z,49.60
2017-11-29T05:05:07.368Z,47.53
2017-11-29T05:07:34.832Z,52.63
2017-11-29T05:10:02.228Z,50.07
2017-11-29T05:12:29.624Z,48.10
2017-11-29T05:14:57.012Z,45.90
2017-11-29T05:17:24.423Z,59.23
2017-11-29T05:19:51.794Z,49.57
2017-11-29T05:22:19.196Z,54.53
2017-11-29T05:24:46.588Z,53.77
2017-11-29T05:27:13.984Z,51.87
2017-11-29T05:29:41.367Z,46.07
2017-11-29T05:32:08.788Z,47.20
2017-11-29T05:34:36.182Z,47.23
2017-11-29T05:37:03.574Z,54.97
2017-11-29T05:39:30.956Z,50.10
2017-11-29T05:41:58.412Z,51.80
2017-11-29T05:44:25.795Z,52.20
2017-11-29T05:46:53.225Z,47.13
2017-11-29T05:49:20.606Z,49.47
2017-11-29T05:51:48.005Z,44.40
2017-11-29T05:54:15.388Z,48.27
2017-11-29T05:56:42.883Z,50.33
2017-11-29T05:59:10.291Z,44.90
2017-11-29T06:01:37.699Z,60.60
2017-11-29T06:04:05.092Z,51.50
2017-11-29T06:06:32.480Z,50.00
2017-11-29T06:08:59.884Z,52.33
2017-11-29T06:11:27.283Z,55.90
2017-11-29T06:13:54.780Z,49.73
2017-11-29T06:16:22.227Z,51.93
2017-11-29T06:18:49.623Z,52.50
2017-11-29T06:21:17.003Z,49.07
2017-11-29T06:23:44.399Z,57.37
2017-11-29T06:26:11.788Z,54.87
2017-11-29T06:28:39.197Z,51.73
2017-11-29T06:31:06.594Z,48.27
2017-11-29T06:33:33.980Z,53.53
2017-11-29T06:36:01.375Z,55.67
2017-11-29T06:38:28.768Z,47.23
2017-11-29T06:40:56.183Z,57.77
2017-11-29T06:43:23.572Z,59.60
2017-11-29T06:45:50.951Z,53.47
2017-11-29T06:48:18.503Z,54.40
2017-11-29T06:50:45.875Z,52.90
2017-11-29T06:53:13.263Z,48.97
2017-11-29T06:55:40.648Z,55.57
2017-11-29T06:58:08.076Z,51.90
2017-11-29T07:00:35.529Z,53.57
2017-11-29T07:03:02.948Z,50.57
2017-11-29T07:05:30.336Z,56.30
2017-11-29T07:07:57.720Z,57.60
2017-11-29T07:10:25.186Z,55.97
2017-11-29T07:12:52.576Z,51.20
2017-11-29T07:15:20.060Z,49.63
2017-11-29T07:17:47.444Z,59.83
2017-11-29T07:20:14.844Z,51.90
2017-11-29T07:22:42.491Z,51.77
2017-11-29T07:25:09.887Z,52.90
2017-11-29T07:27:37.305Z,60.43
2017-11-29T07:30:04.788Z,55.93
2017-11-29T07:32:32.252Z,45.50
2017-11-29T07:34:59.647Z,59.80
2017-11-29T07:37:27.076Z,57.80
2017-11-29T07:39:54.465Z,57.67
2017-11-29T07:42:21.847Z,50.93
2017-11-29T07:44:49.259Z,61.03
2017-11-29T07:47:16.669Z,48.33
2017-11-29T07:49:44.071Z,49.17
2017-11-29T07:52:11.499Z,50.00
2017-11-29T07:54:38.889Z,50.80
2017-11-29T07:57:06.320Z,54.27
2017-11-29T07:59:33.764Z,49.73
2017-11-29T08:02:01.148Z,49.27
2017-11-29T08:04:28.573Z,52.27
2017-11-29T08:06:55.964Z,45.43
2017-11-29T08:09:23.351Z,54.27
2017-11-29T08:11:50.739Z,49.33
2017-11-29T08:14:18.138Z,54.73
2017-11-29T08:16:45.563Z,44.93
2017-11-29T08:19:12.941Z,55.30
2017-11-29T08:21:40.331Z,46.87
2017-11-29T08:24:07.722Z,44.00
2017-11-29T08:26:35.132Z,45.93
2017-11-29T08:29:02.585Z,52.60
2017-11-29T08:31:29.985Z,45.90
2017-11-29T08:33:57.392Z,47.00
2017-11-29T08:36:24.914Z,45.87
2017-11-29T08:38:52.296Z,46.73
2017-11-29T08:41:19.688Z,50.87
2017-11-29T08:43:47.067Z,47.77
2017-11-29T08:46:14.469Z,55.03
2017-11-29T08:48:41.900Z,47.40
2017-11-29T08:51:09.285Z,45.10
2017-11-29T08:53:36.736Z,53.87
2017-11-29T08:56:04.132Z,42.67
2017-11-29T08:58:31.516Z,42.60
2017-11-29T09:00:58.911Z,45.63
2017-11-29T09:03:26.360Z,47.30
2017-11-29T09:05:53.811Z,45.23
2017-11-29T09:08:21.263Z,53.40
2017-11-29T09:10:48.668Z,41.60
2017-11-29T09:13:16.056Z,39.47
2017-11-29T09:15:43.448Z,38.00
2017-11-29T09:18:10.891Z,53.13
2017-11-29T09:20:38.279Z,45.83
2017-11-29T09:23:05.676Z,36.50
2017-11-29T09:25:33.069Z,38.90
2017-11-29T09:28:00.463Z,38.67
2017-11-29T09:30:27.854Z,39.50
2017-11-29T09:32:55.321Z,44.87
2017-11-29T09:35:22.796Z,38.00
2017-11-29T09:37:50.188Z,40.80
2017-11-29T09:40:17.567Z,63.87
2017-11-29T09:42:44.960Z,40.83
2017-11-29T09:45:12.352Z,41.03
2017-11-29T09:47:39.760Z,45.20
2017-11-29T09:50:07.155Z,62.73
2017-11-29T09:52:34.547Z,52.47
2017-11-29T09:55:01.949Z,40.70
2017-11-29T09:57:29.337Z,44.93
2017-11-29T09:59:56.724Z,36.97
2017-11-29T10:02:24.110Z,34.38
2017-11-29T10:04:51.531Z,34.53
2017-11-29T10:07:18.927Z,41.10
2017-11-29T10:09:45.612Z,48.50
2017-11-29T10:12:13.107Z,46.30
2017-11-29T10:14:40.551Z,38.40
2017-11-29T10:17:07.947Z,44.70
2017-11-29T10:19:35.351Z,37.30
2017-11-29T10:22:02.751Z,39.33
2017-11-29T10:24:30.312Z,42.83
2017-11-29T10:26:57.709Z,40.93
2017-11-29T10:29:25.199Z,40.27
2017-11-29T10:31:52.640Z,43.40
2017-11-29T10:34:20.037Z,46.83
2017-11-29T10:36:47.423Z,37.40
2017-11-29T10:39:14.900Z,67.10
2017-11-29T10:41:42.306Z,55.43
2017-11-29T10:44:09.693Z,46.60
2017-11-29T10:46:37.163Z,49.43
2017-11-29T10:49:04.588Z,45.27
2017-11-29T10:51:31.982Z,36.37
2017-11-29T10:53:59.428Z,38.83
2017-11-29T10:56:26.833Z,46.43
2017-11-29T10:58:54.231Z,53.77
2017-11-29T11:01:21.621Z,56.77
2017-11-29T11:03:49.013Z,43.50
2017-11-29T11:06:16.396Z,42.07
2017-11-29T11:08:43.868Z,40.53
2017-11-29T11:11:11.325Z,46.40
2017-11-29T11:13:38.719Z,46.27
2017-11-29T11:16:06.139Z,50.80
2017-11-29T11:18:33.539Z,39.20
2017-11-29T11:21:00.915Z,42.07
2017-11-29T11:23:28.314Z,46.13
2017-11-29T11:25:55.707Z,37.93
2017-11-29T11:28:23.092Z,40.30
2017-11-29T11:30:50.489Z,48.87
2017-11-29T11:33:17.871Z,38.00
2017-11-29T11:35:45.276Z,43.80
2017-11-29T11:38:12.732Z,47.20
2017-11-29T11:40:40.124Z,38.10
2017-11-29T11:43:07.562Z,40.93
2017-11-29T11:45:34.953Z,39.47
2017-11-29T11:48:02.373Z,40.20
2017-11-29T11:50:29.732Z,40.90
2017-11-29T11:52:57.112Z,50.40
2017-11-29T11:55:24.516Z,38.20
2017-11-29T11:57:51.903Z,40.00
2017-11-29T12:00:19.292Z,38.50
2017-11-29T12:02:46.684Z,36.10
2017-11-29T12:05:14.089Z,37.70
2017-11-29T12:07:41.497Z,38.17
2017-11-29T12:10:08.948Z,38.23
2017-11-29T12:12:36.340Z,35.50
2017-11-29T12:15:03.727Z,40.27
2017-11-29T12:17:31.222Z,47.87
2017-11-29T12:19:58.608Z,45.53
2017-11-29T12:22:25.997Z,39.13
2017-11-29T12:24:53.485Z,39.67
2017-11-29T12:27:20.871Z,37.30
2017-11-29T12:29:48.259Z,42.50
2017-11-29T12:32:15.762Z,37.43
2017-11-29T12:34:43.148Z,36.60
2017-11-29T12:37:10.568Z,37.70
2017-11-29T12:39:37.945Z,35.07
2017-11-29T12:42:05.367Z,39.30
2017-11-29T12:44:32.727Z,38.60
2017-11-29T12:47:00.186Z,35.57
2017-11-29T12:49:39.512Z,31.57
2017-11-29T12:52:06.913Z,36.43
2017-11-29T12:54:34.324Z,32.90
2017-11-29T12:57:01.725Z,33.33
2017-11-29T12:59:29.104Z,43.00
2017-11-29T13:01:56.514Z,35.73
2017-11-29T13:04:23.891Z,41.23
2017-11-29T13:06:51.283Z,39.50
2017-11-29T13:09:18.724Z,32.63
2017-11-29T13:11:46.121Z,40.70
2017-11-29T13:14:13.513Z,40.47
2017-11-29T13:16:40.891Z,29.90
2017-11-29T13:19:08.339Z,39.23
2017-11-29T13:21:35.804Z,34.33
2017-11-29T13:24:03.188Z,39.10
2017-11-29T13:26:30.578Z,37.03
2017-11-29T13:28:57.971Z,38.40
2017-11-29T13:31:25.382Z,46.03
2017-11-29T13:33:52.885Z,41.00
2017-11-29T13:36:20.271Z,47.23
2017-11-29T13:38:47.661Z,40.30
2017-11-29T13:41:15.144Z,52.37
2017-11-29T13:43:42.537Z,37.33
2017-11-29T13:46:09.928Z,29.80
2017-11-29T13:48:37.409Z,36.30
2017-11-29T13:51:04.822Z,37.27
2017-11-29T13:53:32.191Z,37.00
2017-11-29T13:55:59.573Z,36.43
2017-11-29T13:58:26.955Z,33.03
2017-11-29T14:00:54.343Z,28.63
2017-11-29T14:03:21.848Z,31.60
2017-11-29T14:05:49.305Z,32.93
2017-11-29T14:08:16.692Z,28.63
2017-11-29T14:10:44.094Z,34.40
2017-11-29T14:13:11.493Z,31.50
2017-11-29T14:15:38.924Z,32.37
2017-11-29T14:18:06.321Z,29.93
2017-11-29T14:20:33.703Z,34.33
2017-11-29T14:23:01.100Z,35.97
2017-11-29T14:25:28.476Z,33.53
2017-11-29T14:27:55.870Z,36.63
2017-11-29T14:30:23.269Z,34.37
2017-11-29T14:32:50.676Z,38.00
2017-11-29T14:35:18.068Z,40.30
2017-11-29T14:37:45.464Z,35.67
2017-11-29T14:40:12.861Z,40.83
2017-11-29T14:42:40.244Z,32.40
2017-11-29T14:45:07.668Z,33.10
2017-11-29T14:47:35.051Z,36.00
2017-11-29T14:50:02.458Z,37.70
2017-11-29T14:52:29.831Z,42.57
2017-11-29T14:54:57.327Z,38.77
2017-11-29T14:57:24.712Z,54.20
2017-11-29T14:59:52.099Z,35.80
2017-11-29T15:02:19.488Z,48.27
2017-11-29T15:04:46.876Z,45.20
2017-11-29T15:07:14.267Z,38.80
2017-11-29T15:09:41.663Z,35.30
2017-11-29T15:12:09.056Z,32.00
2017-11-29T15:14:36.448Z,28.60
2017-11-29T15:17:03.872Z,38.80
2017-11-29T15:19:32.144Z,34.90
2017-11-29T15:21:59.596Z,32.90
2017-11-29T15:24:26.996Z,39.97
2017-11-29T15:26:54.380Z,36.00
2017-11-29T15:29:21.883Z,40.53
2017-11-29T15:31:49.274Z,35.30
2017-11-29T15:34:16.664Z,39.70
2017-11-29T15:36:44.086Z,50.90
2017-11-29T15:39:11.482Z,45.87
2017-11-29T15:41:38.863Z,51.37
2017-11-29T15:44:06.303Z,44.97
2017-11-29T15:46:33.707Z,58.17
2017-11-29T15:49:01.091Z,45.93
2017-11-29T15:51:28.487Z,47.40
2017-11-29T15:53:55.866Z,47.30
2017-11-29T15:56:23.257Z,44.40
2017-11-29T15:58:50.651Z,54.53
2017-11-29T16:01:18.047Z,55.50
2017-11-29T16:03:45.439Z,44.37
2017-11-29T16:06:12.894Z,48.63
2017-11-29T16:08:40.355Z,44.10
2017-11-29T16:11:07.803Z,44.53
2017-11-29T16:13:35.200Z,41.40
2017-11-29T16:16:02.592Z,43.63
2017-11-29T16:18:29.982Z,42.13
2017-11-29T16:20:57.376Z,40.03
2017-11-29T16:23:24.768Z,43.30
2017-11-29T16:25:52.170Z,43.07
2017-11-29T16:28:19.554Z,39.57
2017-11-29T16:30:46.953Z,48.80
2017-11-29T16:33:14.366Z,43.83
2017-11-29T16:35:41.759Z,41.13
2017-11-29T16:38:09.144Z,41.73
2017-11-29T16:40:36.547Z,39.03
2017-11-29T16:43:03.953Z,39.37
2017-11-29T16:45:31.383Z,40.50
2017-11-29T16:47:58.779Z,49.10
2017-11-29T16:50:26.164Z,42.77
2017-11-29T16:52:53.555Z,42.83
2017-11-29T16:55:21.002Z,47.73
2017-11-29T16:57:48.395Z,42.90
2017-11-29T17:00:15.796Z,43.33
2017-11-29T17:02:43.192Z,44.20
2017-11-29T17:05:10.579Z,37.13
2017-11-29T17:07:37.993Z,49.00
2017-11-29T17:10:05.368Z,41.40
2017-11-29T17:12:32.776Z,48.27
2017-11-29T17:15:00.164Z,46.50
2017-11-29T17:17:27.601Z,37.93
2017-11-29T17:19:54.979Z,38.90
2017-11-29T17:22:22.372Z,40.93
2017-11-29T17:24:49.767Z,38.60
2017-11-29T17:27:17.160Z,42.20
2017-11-29T17:30:11.593Z,41.33
2017-11-29T17:32:38.992Z,43.83
2017-11-29T17:35:06.373Z,42.63
2017-11-29T17:37:33.761Z,40.60
2017-11-29T17:40:01.224Z,43.20
2017-11-29T17:42:28.603Z,41.80
2017-11-29T17:44:56.267Z,38.17
2017-11-29T17:47:23.705Z,43.53
2017-11-29T17:49:51.088Z,39.90
2017-11-29T17:52:18.495Z,40.90
2017-11-29T17:54:45.961Z,40.60
2017-11-29T17:57:13.343Z,45.37
2017-11-29T17:59:40.741Z,40.27
2017-11-29T18:02:08.147Z,41.70
2017-11-29T18:04:35.543Z,42.60
2017-11-29T18:07:02.943Z,40.27
2017-11-29T18:09:30.419Z,42.13
2017-11-29T18:11:57.792Z,47.40
2017-11-29T18:14:25.184Z,45.83
2017-11-29T18:16:52.571Z,39.73
2017-11-29T18:19:19.960Z,44.60
2017-11-29T18:21:47.432Z,41.40
2017-11-29T18:24:14.828Z,46.07
2017-11-29T18:26:42.223Z,45.90
2017-11-29T18:29:09.616Z,40.93
2017-11-29T18:31:37.002Z,48.70
2017-11-29T18:34:04.540Z,44.87
2017-11-29T18:36:31.928Z,50.80
2017-11-29T18:38:59.430Z,50.40
2017-11-29T18:41:26.810Z,50.97
2017-11-29T18:43:54.231Z,45.40
2017-11-29T18:46:21.634Z,48.60
2017-11-29T18:48:49.008Z,46.47
2017-11-29T18:51:16.396Z,55.07
2017-11-29T18:53:43.780Z,55.50
2017-11-29T18:56:11.214Z,57.70
2017-11-29T18:58:38.598Z,57.60
2017-11-29T19:01:06.027Z,54.10
2017-11-29T19:03:33.423Z,46.87
2017-11-29T19:06:00.914Z,57.30
2017-11-29T19:08:28.424Z,54.67
2017-11-29T19:10:55.837Z,60.30
2017-11-29T19:13:23.223Z,65.40
2017-11-29T19:15:50.612Z,71.67
2017-11-29T19:18:18.005Z,62.20
2017-11-29T19:20:45.472Z,63.07
2017-11-29T19:23:12.873Z,56.27
2017-11-29T19:25:40.285Z,56.40
2017-11-29T19:28:07.732Z,53.97
2017-11-29T19:30:35.130Z,57.63
2017-11-29T19:33:01.807Z,70.80
2017-11-29T19:35:29.203Z,58.73
2017-11-29T19:37:56.645Z,62.93
2017-11-29T19:40:24.043Z,63.23
2017-11-29T19:42:51.430Z,60.13
2017-11-29T19:45:18.911Z,53.10
2017-11-29T19:47:46.367Z,51.40
2017-11-29T19:50:13.764Z,59.80
2017-11-29T19:52:41.158Z,58.57
2017-11-29T19:55:08.627Z,56.23
2017-11-29T19:57:36.027Z,67.23
2017-11-29T20:00:04.050Z,61.53
2017-11-29T20:02:31.460Z,60.07
2017-11-29T20:04:58.851Z,54.43
2017-11-29T20:07:26.248Z,63.50
2017-11-29T20:09:53.651Z,56.07
2017-11-29T20:12:21.032Z,70.57
2017-11-29T20:14:48.432Z,52.17
2017-11-29T20:17:15.823Z,66.50
2017-11-29T20:19:43.220Z,63.43
2017-11-29T20:22:10.627Z,64.63
2017-11-29T20:24:40.828Z,56.80
2017-11-29T20:27:08.248Z,63.80
2017-11-29T20:29:35.638Z,68.83
2017-11-29T20:32:03.147Z,62.37
2017-11-29T20:34:30.594Z,70.80
2017-11-29T20:36:58.065Z,82.93
2017-11-29T20:39:25.443Z,71.00
2017-11-29T20:41:52.878Z,70.83
2017-11-29T20:44:20.264Z,68.40
2017-11-29T20:46:47.651Z,69.70
2017-11-29T20:49:15.048Z,76.30
2017-11-29T20:51:42.484Z,75.80
2017-11-29T20:54:09.948Z,74.27
2017-11-29T20:56:37.349Z,63.23
2017-11-29T20:59:04.772Z,64.67
2017-11-29T21:01:32.187Z,69.07
2017-11-29T21:03:59.683Z,62.73
2017-11-29T21:06:27.077Z,67.77
2017-11-29T21:08:54.576Z,67.17
2017-11-29T21:11:21.983Z,76.10
2017-11-29T21:13:49.367Z,74.83
2017-11-29T21:16:16.042Z,75.40
2017-11-29T21:18:43.443Z,68.20
2017-11-29T21:21:10.833Z,66.90
2017-11-29T21:26:29.095Z,63.33
2017-11-29T21:28:56.488Z,71.07
2017-11-29T21:31:23.873Z,75.13
2017-11-29T21:33:51.276Z,72.40
2017-11-29T21:36:18.659Z,75.23
2017-11-29T21:38:46.047Z,71.27
2017-11-29T21:41:13.444Z,71.50
2017-11-29T21:43:40.885Z,71.87
2017-11-29T21:46:08.296Z,71.63
2017-11-29T21:48:35.680Z,78.33
2017-11-29T21:51:03.071Z,69.67
2017-11-29T21:53:30.463Z,80.50
2017-11-29T21:55:57.855Z,87.80
2017-11-29T21:58:25.261Z,90.30
2017-11-29T22:00:52.636Z,78.33
2017-11-29T22:03:20.040Z,86.20
2017-11-29T22:05:47.436Z,86.97
2017-11-29T22:08:14.832Z,84.60
2017-11-29T22:10:42.280Z,103.00
2017-11-29T22:13:09.668Z,92.03
2017-11-29T22:15:37.065Z,87.80
2017-11-29T22:18:04.457Z,83.47
2017-11-29T22:20:31.920Z,86.87
2017-11-29T22:22:59.302Z,81.70
2017-11-29T22:25:26.715Z,108.73
2017-11-29T22:27:54.131Z,98.87
2017-11-29T22:30:21.519Z,94.23
2017-11-29T22:32:48.976Z,93.13
2017-11-29T22:35:16.435Z,106.03
2017-11-29T22:37:43.832Z,87.40
2017-11-29T22:40:11.225Z,92.57
2017-11-29T22:42:38.613Z,103.97
2017-11-29T22:45:06.082Z,97.03
2017-11-29T22:47:33.462Z,92.07
2017-11-29T22:50:00.871Z,76.57
2017-11-29T22:52:28.315Z,87.10
2017-11-29T22:54:55.717Z,81.70
2017-11-29T22:57:23.099Z,78.97
2017-11-29T22:59:50.499Z,77.33
2017-11-29T23:02:17.947Z,85.57
2017-11-29T23:04:45.341Z,73.97
2017-11-29T23:07:12.726Z,76.60
2017-11-29T23:09:40.212Z,72.70
2017-11-29T23:12:07.596Z,72.17
2017-11-29T23:14:34.988Z,77.20
2017-11-29T23:17:02.380Z,80.87
2017-11-29T23:19:29.765Z,69.90
2017-11-29T23:21:57.160Z,71.40
2017-11-29T23:24:24.554Z,76.83
2017-11-29T23:26:51.944Z,92.73
2017-11-29T23:29:19.352Z,78.37
2017-11-29T23:31:46.806Z,86.63
2017-11-29T23:34:14.193Z,93.30
2017-11-29T23:36:41.678Z,90.03
2017-11-29T23:39:09.066Z,96.50
2017-11-29T23:41:36.458Z,90.27
2017-11-29T23:44:03.844Z,80.70
2017-11-29T23:46:31.247Z,100.90
2017-11-29T23:48:58.640Z,86.27
2017-11-29T23:51:26.044Z,89.80
2017-11-29T23:53:53.426Z,86.57
2017-11-29T23:56:20.820Z,85.27
2017-11-29T23:58:48.276Z,97.50
